Terminal Aerodrome Forecast
Issued by NWS Sioux Falls, SD

Home | Current Version | Previous Version | Graphics & Text | Print | Product List | Glossary On
Versions: 1 2 3 4 5 6 7 8 9 10 11 12 13 14 15 16
158
FTUS43 KFSD 252346
TAFHON
TAF
KHON 252346Z 2600/2624 19007KT P6SM FEW250
     FM261000 33012KT P6SM BKN140
     FM261200 35017G25KT P6SM SCT050 BKN100
     FM261400 35019G28KT P6SM SCT200=

USA.gov is the U.S. government's official web portal to all federal, state and local government web resources and services.